Time;durP1;ratioP1;P1;durP2;ratioP2;P2;SDS_P1;SDS_P2;PMS_P1;PMS_P2;Temp;Humidity;BMP_temperature;BMP_pressure;BME280_temperature;BME280_humidity;BME280_pressure;Samples;Min_cycle;Max_cycle;Signal;HPM_P1;HPM_P2
2021/09/03 00:01:14;;;;;;;61.03;32.83;;;;;;;;;;5016112;28;20157;-42
2021/09/03 00:03:40;;;;;;;60.13;29.75;;;;;;;;;;5016234;28;20037;-42
2021/09/03 00:06:06;;;;;;;69.95;35.60;;;;;;;;;;5016235;28;20022;-43
2021/09/03 00:08:32;;;;;;;72.20;38.38;;;;;;;;;;5016192;28;20036;-43
2021/09/03 00:10:59;;;;;;;60.92;32.70;;;;;;;;;;5016224;28;20034;-40
2021/09/03 00:13:26;;;;;;;58.83;31.08;;;;;;;;;;5016305;28;20018;-43
2021/09/03 00:15:53;;;;;;;46.75;25.67;;;;;;;;;;5016283;28;20040;-42
2021/09/03 00:18:19;;;;;;;67.15;33.28;;;;;;;;;;5016165;28;20032;-42
2021/09/03 00:20:45;;;;;;;48.78;25.73;;;;;;;;;;5016010;28;20106;-42
2021/09/03 00:23:11;;;;;;;46.22;25.23;;;;;;;;;;5015906;28;20038;-42
2021/09/03 00:25:37;;;;;;;81.35;44.45;;;;;;;;;;5016378;28;20315;-42
2021/09/03 00:28:03;;;;;;;82.35;37.08;;;;;;;;;;5016144;28;20057;-42
2021/09/03 00:30:32;;;;;;;49.25;23.92;;;;;;;;;;5015983;28;20026;-42
2021/09/03 00:32:58;;;;;;;34.20;17.55;;;;;;;;;;5015851;28;20073;-42
2021/09/03 00:35:24;;;;;;;48.22;23.25;;;;;;;;;;5015851;28;20105;-42
2021/09/03 00:37:50;;;;;;;53.45;26.95;;;;;;;;;;5015696;28;20026;-42
2021/09/03 00:40:16;;;;;;;60.65;29.40;;;;;;;;;;5015700;28;20061;-42
2021/09/03 00:42:42;;;;;;;67.45;34.83;;;;;;;;;;5015607;28;20033;-41
2021/09/03 00:45:08;;;;;;;54.80;26.67;;;;;;;;;;5015740;28;20486;-42
2021/09/03 00:47:34;;;;;;;57.03;29.98;;;;;;;;;;5015440;28;20032;-41
2021/09/03 00:50:00;;;;;;;120.93;59.55;;;;;;;;;;5015521;28;20058;-42
2021/09/03 00:52:27;;;;;;;88.18;42.88;;;;;;;;;;5015604;28;20026;-41
2021/09/03 00:54:55;;;;;;;56.30;28.42;;;;;;;;;;5015295;28;20528;-41
2021/09/03 00:57:22;;;;;;;56.22;25.95;;;;;;;;;;5015656;28;20483;-40
2021/09/03 00:59:53;;;;;;;45.33;23.08;;;;;;;;;;5015172;28;20022;-40
2021/09/03 01:02:19;;;;;;;35.43;17.77;;;;;;;;;;5015074;28;20481;-40
2021/09/03 01:04:45;;;;;;;40.90;21.33;;;;;;;;;;5015120;28;20022;-40
2021/09/03 01:07:11;;;;;;;32.30;16.92;;;;;;;;;;5015153;28;20493;-41
2021/09/03 01:09:37;;;;;;;26.98;14.05;;;;;;;;;;5015074;28;20018;-40
2021/09/03 01:12:03;;;;;;;31.27;17.85;;;;;;;;;;5015036;28;20025;-40
2021/09/03 01:14:29;;;;;;;27.77;15.02;;;;;;;;;;5015286;28;20044;-40
2021/09/03 01:16:55;;;;;;;25.55;13.70;;;;;;;;;;5015201;28;20022;-41
2021/09/03 01:19:22;;;;;;;24.58;13.10;;;;;;;;;;5015023;28;20104;-40
2021/09/03 01:21:52;;;;;;;23.67;13.05;;;;;;;;;;5015049;28;20022;-43
2021/09/03 01:24:18;;;;;;;19.75;11.40;;;;;;;;;;5014950;28;20029;-41
2021/09/03 01:26:44;;;;;;;34.03;16.67;;;;;;;;;;5014935;28;20028;-42
2021/09/03 01:29:12;;;;;;;32.72;15.68;;;;;;;;;;5015061;28;20442;-42
2021/09/03 01:31:40;;;;;;;23.58;13.10;;;;;;;;;;5014793;28;20423;-42
2021/09/03 01:34:07;;;;;;;27.65;13.10;;;;;;;;;;5014773;28;20026;-42
2021/09/03 01:36:33;;;;;;;27.60;15.80;;;;;;;;;;5014654;28;20033;-42
2021/09/03 01:38:59;;;;;;;34.50;18.38;;;;;;;;;;5014559;28;20028;-40
2021/09/03 01:41:26;;;;;;;30.00;14.15;;;;;;;;;;5014768;28;20033;-40
2021/09/03 01:43:52;;;;;;;29.98;15.43;;;;;;;;;;5014545;28;20112;-42
2021/09/03 01:46:18;;;;;;;29.63;14.80;;;;;;;;;;5014598;28;20101;-42
2021/09/03 01:48:45;;;;;;;27.13;13.50;;;;;;;;;;5014425;28;20032;-41
2021/09/03 01:51:15;;;;;;;37.42;16.48;;;;;;;;;;5014396;28;20022;-41
2021/09/03 01:53:42;;;;;;;32.43;17.07;;;;;;;;;;5014288;28;20028;-42
2021/09/03 01:56:08;;;;;;;26.02;13.80;;;;;;;;;;5014479;28;20337;-42
2021/09/03 01:58:34;;;;;;;29.73;14.82;;;;;;;;;;5014368;28;20088;-40
2021/09/03 02:01:00;;;;;;;28.00;15.07;;;;;;;;;;5014215;28;20026;-40
2021/09/03 02:03:26;;;;;;;26.95;13.48;;;;;;;;;;5014000;28;20103;-40
2021/09/03 02:05:52;;;;;;;26.65;14.45;;;;;;;;;;5014156;28;20045;-40
2021/09/03 02:08:18;;;;;;;31.13;15.75;;;;;;;;;;5014042;28;20474;-40
2021/09/03 02:10:44;;;;;;;37.15;14.98;;;;;;;;;;5013883;28;20136;-41
2021/09/03 02:13:11;;;;;;;34.25;17.13;;;;;;;;;;5013936;28;20021;-41
2021/09/03 02:15:37;;;;;;;35.50;16.80;;;;;;;;;;5014013;28;20021;-40
2021/09/03 02:18:03;;;;;;;31.48;16.70;;;;;;;;;;5013909;28;20026;-40
2021/09/03 02:20:29;;;;;;;30.05;14.30;;;;;;;;;;5013861;28;20026;-40
2021/09/03 02:22:55;;;;;;;31.75;16.00;;;;;;;;;;5013592;28;20073;-41
2021/09/03 02:25:21;;;;;;;29.27;14.63;;;;;;;;;;5013967;28;20091;-40
2021/09/03 02:27:47;;;;;;;29.70;16.35;;;;;;;;;;5013755;28;20033;-41
2021/09/03 02:30:13;;;;;;;29.15;14.30;;;;;;;;;;5013734;28;20533;-40
2021/09/03 02:32:39;;;;;;;31.13;16.75;;;;;;;;;;5013703;28;20034;-42
2021/09/03 02:35:09;;;;;;;27.73;14.88;;;;;;;;;;5013626;28;20156;-41
2021/09/03 02:37:35;;;;;;;27.20;13.15;;;;;;;;;;5013661;28;20036;-42
2021/09/03 02:40:01;;;;;;;34.85;13.73;;;;;;;;;;5013690;28;20022;-41
2021/09/03 02:42:27;;;;;;;23.50;14.18;;;;;;;;;;5013331;28;20034;-41
2021/09/03 02:44:53;;;;;;;21.42;14.40;;;;;;;;;;5013495;28;20036;-41
2021/09/03 02:47:19;;;;;;;22.75;13.75;;;;;;;;;;5013624;28;20029;-42
2021/09/03 02:49:45;;;;;;;29.95;14.02;;;;;;;;;;5013447;28;20030;-41
2021/09/03 02:52:11;;;;;;;25.70;13.60;;;;;;;;;;5013388;28;20033;-41
2021/09/03 02:54:37;;;;;;;24.27;12.65;;;;;;;;;;5013351;28;20022;-42
2021/09/03 02:57:03;;;;;;;27.95;13.50;;;;;;;;;;5013571;28;20029;-42
2021/09/03 02:59:30;;;;;;;20.02;12.73;;;;;;;;;;5013761;28;20033;-41
2021/09/03 03:01:56;;;;;;;26.83;12.55;;;;;;;;;;5013112;28;20108;-41
2021/09/03 03:04:22;;;;;;;19.20;12.70;;;;;;;;;;5013415;28;20382;-40
2021/09/03 03:06:48;;;;;;;20.48;12.48;;;;;;;;;;5013247;28;20028;-41
2021/09/03 03:09:14;;;;;;;23.48;13.38;;;;;;;;;;5013157;28;20030;-41
2021/09/03 03:11:40;;;;;;;23.42;14.38;;;;;;;;;;5013372;28;20100;-42
2021/09/03 03:14:15;;;;;;;28.80;15.40;;;;;;;;;;5013376;28;20030;-41
2021/09/03 03:16:41;;;;;;;22.05;15.60;;;;;;;;;;5013198;28;20504;-42
2021/09/03 03:19:07;;;;;;;27.02;15.07;;;;;;;;;;5013515;28;20374;-42
2021/09/03 03:21:34;;;;;;;23.30;14.70;;;;;;;;;;5013157;28;20023;-42
2021/09/03 03:24:00;;;;;;;30.08;16.48;;;;;;;;;;5015049;28;20044;-41
2021/09/03 03:26:26;;;;;;;21.58;14.20;;;;;;;;;;5016975;28;20533;-41
2021/09/03 03:28:52;;;;;;;28.27;15.60;;;;;;;;;;5017174;28;20080;-42
2021/09/03 03:31:20;;;;;;;27.02;18.35;;;;;;;;;;5016766;28;20087;-41
2021/09/03 03:33:46;;;;;;;29.45;16.08;;;;;;;;;;5016954;28;20617;-41
2021/09/03 03:36:15;;;;;;;23.80;16.85;;;;;;;;;;5016832;28;20393;-41
2021/09/03 03:38:41;;;;;;;31.65;16.00;;;;;;;;;;5016768;28;20033;-41
2021/09/03 03:41:07;;;;;;;32.38;18.88;;;;;;;;;;5016846;28;20068;-41
2021/09/03 03:43:33;;;;;;;28.30;17.30;;;;;;;;;;5016681;28;20128;-39
2021/09/03 03:45:59;;;;;;;30.75;16.17;;;;;;;;;;5016862;28;20054;-42
2021/09/03 03:48:26;;;;;;;26.90;15.38;;;;;;;;;;5016742;28;20395;-41
2021/09/03 03:50:53;;;;;;;28.25;16.00;;;;;;;;;;5016637;28;20014;-41
2021/09/03 03:53:21;;;;;;;32.60;17.33;;;;;;;;;;5016479;28;20037;-42
2021/09/03 03:55:47;;;;;;;28.30;16.65;;;;;;;;;;5016613;28;20025;-41
2021/09/03 03:58:13;;;;;;;27.35;15.32;;;;;;;;;;5016440;28;20026;-41
2021/09/03 04:00:39;;;;;;;26.55;15.95;;;;;;;;;;5016457;28;20028;-41
2021/09/03 04:03:05;;;;;;;33.75;19.27;;;;;;;;;;5016003;28;20415;-41
2021/09/03 04:05:31;;;;;;;37.33;21.60;;;;;;;;;;5016358;28;20071;-41
2021/09/03 04:07:57;;;;;;;40.92;20.85;;;;;;;;;;5016146;28;20026;-41
2021/09/03 04:10:23;;;;;;;37.67;21.48;;;;;;;;;;5016269;28;20109;-41
2021/09/03 04:12:50;;;;;;;44.42;21.80;;;;;;;;;;5016239;28;20033;-41
2021/09/03 04:15:16;;;;;;;33.72;19.73;;;;;;;;;;5016116;28;20498;-41
2021/09/03 04:17:42;;;;;;;36.95;18.75;;;;;;;;;;5016115;28;20072;-42
2021/09/03 04:20:11;;;;;;;33.78;20.20;;;;;;;;;;5016009;28;20014;-41
2021/09/03 04:22:37;;;;;;;36.75;20.80;;;;;;;;;;5015811;28;20057;-41
2021/09/03 04:25:07;;;;;;;32.30;21.92;;;;;;;;;;5016061;28;20481;-41
2021/09/03 04:27:34;;;;;;;42.67;23.05;;;;;;;;;;5015872;28;20493;-42
2021/09/03 04:30:01;;;;;;;37.25;24.15;;;;;;;;;;5015922;28;20034;-41
2021/09/03 04:32:28;;;;;;;45.08;25.48;;;;;;;;;;5015559;28;20030;-41
2021/09/03 04:34:54;;;;;;;37.90;22.83;;;;;;;;;;5015282;28;20047;-41
2021/09/03 04:37:20;;;;;;;41.63;20.85;;;;;;;;;;5015574;28;20030;-42
2021/09/03 04:39:46;;;;;;;43.55;23.13;;;;;;;;;;5015768;28;20459;-41
2021/09/03 04:42:13;;;;;;;42.25;24.40;;;;;;;;;;5015656;28;20038;-42
2021/09/03 04:44:39;;;;;;;56.35;29.38;;;;;;;;;;5015528;28;20038;-41
2021/09/03 04:47:07;;;;;;;46.55;26.27;;;;;;;;;;5015651;28;20502;-41
2021/09/03 04:49:33;;;;;;;49.83;26.83;;;;;;;;;;5015716;28;20033;-42
2021/09/03 04:51:59;;;;;;;55.83;31.55;;;;;;;;;;5015374;28;20030;-41
2021/09/03 04:54:26;;;;;;;61.83;33.95;;;;;;;;;;5015493;28;20418;-42
2021/09/03 04:56:54;;;;;;;56.10;28.58;;;;;;;;;;5015511;28;20030;-42
2021/09/03 04:59:20;;;;;;;57.75;28.70;;;;;;;;;;5015422;28;20102;-40
2021/09/03 05:01:46;;;;;;;52.05;25.77;;;;;;;;;;5014951;28;20056;-42
2021/09/03 05:04:12;;;;;;;66.82;31.10;;;;;;;;;;5014371;28;20070;-41
2021/09/03 05:06:38;;;;;;;51.13;27.05;;;;;;;;;;5014659;28;20493;-42
2021/09/03 05:09:05;;;;;;;43.03;25.67;;;;;;;;;;5015056;28;20445;-41
2021/09/03 05:11:31;;;;;;;78.47;38.45;;;;;;;;;;5015243;28;20018;-41
2021/09/03 05:13:57;;;;;;;81.35;41.58;;;;;;;;;;5015230;28;20022;-41
2021/09/03 05:16:23;;;;;;;118.63;38.55;;;;;;;;;;5015027;28;20080;-41
2021/09/03 05:18:49;;;;;;;79.97;37.22;;;;;;;;;;5014937;28;20057;-41
2021/09/03 05:21:15;;;;;;;76.35;38.50;;;;;;;;;;5029750;28;20509;-42
2021/09/03 05:23:41;;;;;;;71.88;32.53;;;;;;;;;;5014897;28;20113;-42
2021/09/03 05:26:07;;;;;;;62.28;28.45;;;;;;;;;;5015165;28;20033;-43
2021/09/03 05:28:33;;;;;;;62.78;26.00;;;;;;;;;;5014896;28;20061;-43
2021/09/03 05:30:59;;;;;;;52.63;28.98;;;;;;;;;;5014788;28;20386;-42
2021/09/03 05:33:25;;;;;;;57.50;24.38;;;;;;;;;;5014944;28;20034;-42
2021/09/03 05:35:51;;;;;;;45.85;22.40;;;;;;;;;;5014622;28;20029;-42
2021/09/03 05:38:18;;;;;;;48.40;22.15;;;;;;;;;;5014859;28;20029;-41
2021/09/03 05:40:44;;;;;;;40.42;21.85;;;;;;;;;;5014631;28;20051;-41
2021/09/03 05:43:10;;;;;;;50.03;20.23;;;;;;;;;;5014704;28;20030;-42
2021/09/03 05:45:38;;;;;;;168.18;94.53;;;;;;;;;;5013901;28;20049;-43
2021/09/03 05:48:04;;;;;;;76.82;40.47;;;;;;;;;;5014326;28;20164;-42
2021/09/03 05:50:30;;;;;;;31.17;18.65;;;;;;;;;;5014462;28;20022;-43
2021/09/03 05:52:57;;;;;;;27.17;15.90;;;;;;;;;;5014478;28;20386;-42
2021/09/03 05:55:23;;;;;;;31.20;14.23;;;;;;;;;;5014500;28;20076;-42
2021/09/03 05:57:52;;;;;;;23.02;13.95;;;;;;;;;;5014451;28;20068;-42
2021/09/03 06:00:19;;;;;;;99.88;63.22;;;;;;;;;;5014402;28;20026;-43
2021/09/03 06:02:47;;;;;;;24.48;15.50;;;;;;;;;;5013972;28;20077;-43
2021/09/03 06:05:13;;;;;;;19.13;12.75;;;;;;;;;;5014201;28;20022;-42
2021/09/03 06:07:39;;;;;;;15.40;9.65;;;;;;;;;;5014283;28;20033;-43
2021/09/03 06:10:06;;;;;;;26.67;16.85;;;;;;;;;;5014195;28;20022;-41
2021/09/03 06:12:32;;;;;;;14.10;9.27;;;;;;;;;;5014032;28;20101;-40
2021/09/03 06:15:00;;;;;;;12.93;7.78;;;;;;;;;;5014001;28;20018;-40
2021/09/03 06:17:26;;;;;;;13.32;8.73;;;;;;;;;;5013915;28;20498;-41
2021/09/03 06:19:52;;;;;;;10.50;7.65;;;;;;;;;;5014068;28;20034;-41
2021/09/03 06:22:21;;;;;;;12.05;7.28;;;;;;;;;;5013740;28;20018;-41
2021/09/03 06:24:47;;;;;;;12.20;7.93;;;;;;;;;;5028766;28;20053;-42
2021/09/03 06:27:13;;;;;;;15.93;6.70;;;;;;;;;;5013879;28;20022;-41
2021/09/03 06:29:43;;;;;;;10.13;6.47;;;;;;;;;;5013992;28;20046;-40
2021/09/03 06:32:13;;;;;;;8.20;6.68;;;;;;;;;;5013689;28;20076;-40
2021/09/03 06:34:41;;;;;;;13.40;7.03;;;;;;;;;;5014274;28;20112;-40
2021/09/03 06:37:07;;;;;;;9.55;5.60;;;;;;;;;;5013721;28;20084;-40
2021/09/03 06:39:33;;;;;;;7.88;5.88;;;;;;;;;;5013698;28;20046;-40
2021/09/03 06:42:00;;;;;;;7.30;5.47;;;;;;;;;;5013802;28;20021;-39
2021/09/03 06:44:26;;;;;;;7.20;5.38;;;;;;;;;;5013997;28;20088;-41
2021/09/03 06:46:52;;;;;;;7.60;5.05;;;;;;;;;;5013826;28;20022;-41
2021/09/03 06:49:18;;;;;;;7.10;5.28;;;;;;;;;;5013544;28;20026;-41
2021/09/03 06:51:44;;;;;;;5.97;5.32;;;;;;;;;;5013638;28;20030;-40
2021/09/03 06:54:12;;;;;;;7.32;5.13;;;;;;;;;;5014008;28;20026;-40
2021/09/03 06:56:38;;;;;;;7.22;5.00;;;;;;;;;;5013763;28;20038;-40
2021/09/03 06:59:09;;;;;;;9.13;5.70;;;;;;;;;;5013693;28;20457;-42
2021/09/03 07:01:35;;;;;;;6.03;5.22;;;;;;;;;;5028207;28;20144;-40
2021/09/03 07:04:01;;;;;;;7.60;5.30;;;;;;;;;;5013605;28;20034;-42
2021/09/03 07:06:28;;;;;;;8.40;4.82;;;;;;;;;;5013495;28;20057;-42
2021/09/03 07:08:54;;;;;;;8.90;5.75;;;;;;;;;;5013554;28;20088;-44
2021/09/03 07:11:20;;;;;;;9.32;5.68;;;;;;;;;;5013545;28;20022;-43
2021/09/03 07:13:46;;;;;;;9.13;5.18;;;;;;;;;;5013793;28;20030;-44
2021/09/03 07:16:12;;;;;;;8.38;5.97;;;;;;;;;;5013599;28;20030;-41
2021/09/03 07:18:38;;;;;;;9.05;5.32;;;;;;;;;;5013483;28;20026;-42
2021/09/03 07:21:07;;;;;;;8.07;5.70;;;;;;;;;;5013400;28;20030;-42
2021/09/03 07:23:33;;;;;;;5.95;4.50;;;;;;;;;;5013317;28;20030;-43
2021/09/03 07:26:02;;;;;;;5.75;4.03;;;;;;;;;;5028492;28;20394;-42
2021/09/03 07:28:28;;;;;;;6.47;4.35;;;;;;;;;;5013449;28;20022;-41
2021/09/03 07:30:54;;;;;;;6.85;3.80;;;;;;;;;;5013423;28;20030;-41
2021/09/03 07:33:20;;;;;;;6.90;3.85;;;;;;;;;;5013603;28;20030;-40
2021/09/03 07:35:47;;;;;;;5.32;3.67;;;;;;;;;;5013438;28;20091;-40
2021/09/03 07:38:13;;;;;;;5.53;4.18;;;;;;;;;;5013344;28;20026;-41
2021/09/03 07:40:39;;;;;;;6.90;4.25;;;;;;;;;;5013387;28;20068;-41
2021/09/03 07:43:09;;;;;;;6.75;3.67;;;;;;;;;;5013203;28;20474;-40
2021/09/03 07:45:36;;;;;;;5.03;3.50;;;;;;;;;;5013199;28;20030;-42
2021/09/03 07:48:02;;;;;;;7.57;3.92;;;;;;;;;;5013106;28;20030;-42
2021/09/03 07:50:28;;;;;;;7.32;4.40;;;;;;;;;;5013355;28;20026;-41
2021/09/03 07:52:54;;;;;;;5.78;3.60;;;;;;;;;;5013070;28;20030;-40
2021/09/03 07:55:21;;;;;;;7.97;4.07;;;;;;;;;;5013066;28;20022;-40
2021/09/03 07:57:47;;;;;;;8.48;4.45;;;;;;;;;;5013043;28;20045;-41
2021/09/03 08:00:13;;;;;;;4.32;3.35;;;;;;;;;;5012939;28;20462;-41
2021/09/03 08:02:39;;;;;;;8.65;4.15;;;;;;;;;;5012625;28;20058;-42
2021/09/03 08:05:08;;;;;;;9.10;3.90;;;;;;;;;;5012998;28;20069;-42
2021/09/03 08:07:34;;;;;;;10.98;6.63;;;;;;;;;;5012753;28;20494;-41
2021/09/03 08:10:00;;;;;;;11.27;6.15;;;;;;;;;;5014432;28;20109;-43
2021/09/03 08:12:26;;;;;;;14.45;5.97;;;;;;;;;;5016236;28;20022;-45
2021/09/03 08:14:52;;;;;;;13.70;8.48;;;;;;;;;;5016407;28;20467;-42
2021/09/03 08:17:18;;;;;;;17.13;9.60;;;;;;;;;;5016408;28;20113;-39
2021/09/03 08:19:45;;;;;;;48.08;26.98;;;;;;;;;;5016324;28;20092;-41
2021/09/03 08:22:11;;;;;;;34.28;22.15;;;;;;;;;;5015809;28;20033;-43
2021/09/03 08:24:37;;;;;;;6.45;3.03;;;;;;;;;;5016209;28;20059;-43
2021/09/03 08:27:08;;;;;;;6.07;2.70;;;;;;;;;;5016268;28;20439;-44
2021/09/03 08:29:34;;;;;;;;;;;;;;;;;;5016524;28;20026;-41
2021/09/03 08:32:00;;;;;;;291.42;97.80;;;;;;;;;;5015988;28;19913;-41
2021/09/03 08:34:26;;;;;;;165.90;88.80;;;;;;;;;;5016082;28;20457;-43
2021/09/03 08:36:53;;;;;;;38.33;18.05;;;;;;;;;;5016357;28;20451;-42
2021/09/03 08:39:19;;;;;;;21.55;9.07;;;;;;;;;;5016221;28;20049;-42
2021/09/03 08:41:45;;;;;;;7.15;3.15;;;;;;;;;;5016023;28;20093;-43
2021/09/03 08:44:11;;;;;;;52.10;29.55;;;;;;;;;;5015752;28;20113;-44
2021/09/03 08:46:37;;;;;;;7.97;2.85;;;;;;;;;;5015860;28;20026;-43
2021/09/03 08:49:06;;;;;;;3.17;2.35;;;;;;;;;;5015689;28;20030;-42
2021/09/03 08:51:32;;;;;;;2.65;2.25;;;;;;;;;;5015593;28;20105;-41
2021/09/03 08:53:58;;;;;;;4.47;1.83;;;;;;;;;;5015610;28;20390;-43
2021/09/03 08:56:25;;;;;;;5.72;2.85;;;;;;;;;;5015588;28;20029;-41
2021/09/03 08:58:51;;;;;;;7.63;2.53;;;;;;;;;;5015708;28;20021;-42
2021/09/03 09:01:18;;;;;;;6.07;2.13;;;;;;;;;;5015271;28;20030;-41
2021/09/03 09:03:48;;;;;;;12.13;7.55;;;;;;;;;;5015415;28;20034;-44
2021/09/03 09:06:25;;;;;;;5.85;3.72;;;;;;;;;;5015479;28;20022;-42
2021/09/03 09:09:05;;;;;;;3.60;2.40;;;;;;;;;;5015385;28;20018;-42
2021/09/03 09:11:32;;;;;;;2.85;1.67;;;;;;;;;;5015485;28;20022;-42
2021/09/03 09:14:04;;;;;;;3.38;1.90;;;;;;;;;;5015150;28;20109;-42
2021/09/03 09:16:33;;;;;;;17.75;9.18;;;;;;;;;;5015206;28;20018;-42
2021/09/03 09:19:00;;;;;;;3.45;2.72;;;;;;;;;;5015169;28;20101;-43
2021/09/03 09:21:30;;;;;;;3.95;2.28;;;;;;;;;;5015153;28;20512;-44
2021/09/03 09:23:59;;;;;;;2.50;1.83;;;;;;;;;;5015168;28;20038;-43
2021/09/03 09:26:42;;;;;;;2.65;1.80;;;;;;;;;;5015075;28;20033;-43
2021/09/03 09:29:27;;;;;;;4.05;1.70;;;;;;;;;;5015019;28;20029;-43
2021/09/03 09:31:58;;;;;;;2.65;1.52;;;;;;;;;;5014898;28;20045;-42
2021/09/03 09:34:35;;;;;;;2.65;1.83;;;;;;;;;;5014961;28;20029;-43
2021/09/03 09:37:02;;;;;;;2.33;1.55;;;;;;;;;;5014874;28;20022;-42
2021/09/03 09:39:39;;;;;;;3.17;2.15;;;;;;;;;;5014837;28;20482;-44
2021/09/03 09:42:06;;;;;;;3.08;1.60;;;;;;;;;;5014635;28;20034;-43
2021/09/03 09:44:33;;;;;;;4.38;2.95;;;;;;;;;;5014931;28;20033;-42
2021/09/03 09:47:06;;;;;;;3.92;1.60;;;;;;;;;;5014745;28;20022;-42
2021/09/03 09:49:32;;;;;;;2.35;1.50;;;;;;;;;;5014709;28;20030;-43
2021/09/03 09:51:58;;;;;;;3.72;1.67;;;;;;;;;;5014482;28;20190;-44
2021/09/03 09:54:26;;;;;;;3.40;1.65;;;;;;;;;;5014560;28;20064;-44
2021/09/03 09:56:56;;;;;;;2.10;1.60;;;;;;;;;;5014868;28;20018;-44
2021/09/03 09:59:23;;;;;;;2.03;1.53;;;;;;;;;;5014611;28;20052;-43
2021/09/03 10:02:07;;;;;;;7.10;2.30;;;;;;;;;;5014222;28;20058;-42
2021/09/03 10:04:33;;;;;;;5.07;2.17;;;;;;;;;;5014259;28;20041;-43
2021/09/03 10:07:03;;;;;;;2.47;2.03;;;;;;;;;;5014383;28;20075;-44
2021/09/03 10:09:31;;;;;;;2.67;1.90;;;;;;;;;;5014352;28;20025;-44
2021/09/03 10:11:57;;;;;;;2.70;1.95;;;;;;;;;;5014446;28;20363;-44
2021/09/03 10:14:26;;;;;;;6.07;3.08;;;;;;;;;;5014265;28;20029;-41
2021/09/03 10:16:53;;;;;;;11.65;5.25;;;;;;;;;;5014287;28;20025;-44
2021/09/03 10:19:30;;;;;;;2.38;1.58;;;;;;;;;;5014162;28;20030;-43
2021/09/03 10:22:05;;;;;;;2.53;1.48;;;;;;;;;;5014066;28;20022;-44
2021/09/03 10:24:31;;;;;;;1.95;1.52;;;;;;;;;;5014223;28;20038;-44
2021/09/03 10:26:58;;;;;;;1.52;1.40;;;;;;;;;;5014378;28;20018;-43
2021/09/03 10:29:26;;;;;;;2.67;1.55;;;;;;;;;;5013980;28;20032;-43
2021/09/03 10:31:58;;;;;;;2.42;1.75;;;;;;;;;;5013493;28;20026;-44
2021/09/03 10:34:43;;;;;;;3.67;2.45;;;;;;;;;;5013857;28;20022;-44
2021/09/03 10:37:15;;;;;;;2.72;2.13;;;;;;;;;;5013771;28;20018;-44
2021/09/03 10:39:41;;;;;;;3.40;2.45;;;;;;;;;;5013932;28;20029;-44
2021/09/03 10:42:08;;;;;;;2.38;1.50;;;;;;;;;;5013905;28;20205;-49
2021/09/03 10:44:52;;;;;;;3.05;1.60;;;;;;;;;;5013693;28;20500;-43
2021/09/03 10:47:30;;;;;;;1.65;1.55;;;;;;;;;;5013675;28;20117;-43
2021/09/03 10:49:57;;;;;;;2.25;1.45;;;;;;;;;;5013729;28;20479;-43
2021/09/03 10:52:23;;;;;;;3.83;1.60;;;;;;;;;;5013585;28;20030;-42
2021/09/03 10:54:49;;;;;;;2.42;1.92;;;;;;;;;;5013755;28;20026;-42
2021/09/03 10:57:18;;;;;;;5.22;3.60;;;;;;;;;;5013483;28;20548;-42
2021/09/03 11:00:03;;;;;;;27.48;17.27;;;;;;;;;;5013408;28;20528;-42
2021/09/03 11:02:29;;;;;;;3.55;2.28;;;;;;;;;;5013219;28;20050;-42
2021/09/03 11:05:09;;;;;;;4.80;1.67;;;;;;;;;;5013484;28;20037;-43
2021/09/03 11:07:46;;;;;;;2.42;1.55;;;;;;;;;;5013514;28;20104;-43
2021/09/03 11:10:19;;;;;;;11.00;4.30;;;;;;;;;;5012590;28;20116;-43
2021/09/03 11:12:56;;;;;;;3.03;1.48;;;;;;;;;;5012406;28;20029;-44
2021/09/03 11:15:22;;;;;;;5.35;2.42;;;;;;;;;;5012881;28;20037;-43
2021/09/03 11:17:49;;;;;;;2.38;1.38;;;;;;;;;;5012464;28;20018;-43
2021/09/03 11:20:15;;;;;;;4.68;2.03;;;;;;;;;;5013426;28;20029;-44
2021/09/03 11:22:42;;;;;;;3.28;2.55;;;;;;;;;;5013166;28;20477;-42
2021/09/03 11:25:08;;;;;;;4.43;3.03;;;;;;;;;;5013304;28;20044;-43
2021/09/03 11:27:36;;;;;;;4.90;2.20;;;;;;;;;;5013172;28;20025;-42
2021/09/03 11:30:05;;;;;;;5.97;2.08;;;;;;;;;;5013386;28;20398;-44
2021/09/03 11:32:33;;;;;;;3.08;2.22;;;;;;;;;;5012821;28;20057;-44
2021/09/03 11:34:59;;;;;;;1.70;1.60;;;;;;;;;;5013243;28;20029;-45
2021/09/03 11:37:25;;;;;;;5.43;2.53;;;;;;;;;;5013123;28;20364;-44
2021/09/03 11:39:51;;;;;;;1.67;1.58;;;;;;;;;;5013457;28;20378;-45
2021/09/03 11:42:27;;;;;;;3.55;2.00;;;;;;;;;;5012868;28;20033;-45
2021/09/03 11:44:57;;;;;;;5.63;1.60;;;;;;;;;;5013455;28;20084;-44
2021/09/03 11:47:27;;;;;;;1.90;1.50;;;;;;;;;;4997411;28;20467;-45
2021/09/03 11:49:53;;;;;;;9.52;5.85;;;;;;;;;;5014712;28;20026;-43
2021/09/03 11:52:29;;;;;;;4.15;1.83;;;;;;;;;;5015424;28;20022;-43
2021/09/03 11:54:55;;;;;;;2.05;1.48;;;;;;;;;;5013156;28;20025;-44
2021/09/03 11:57:22;;;;;;;2.22;1.60;;;;;;;;;;5015627;28;20382;-44
2021/09/03 11:59:58;;;;;;;2.33;1.40;;;;;;;;;;5015378;28;20030;-44
2021/09/03 12:02:29;;;;;;;2.17;1.48;;;;;;;;;;5015243;28;20078;-42
2021/09/03 12:04:56;;;;;;;3.28;2.17;;;;;;;;;;5012837;28;20054;-44
2021/09/03 12:07:23;;;;;;;4.05;2.90;;;;;;;;;;5015216;28;20018;-44
2021/09/03 12:09:53;;;;;;;2.45;1.90;;;;;;;;;;5015421;28;20033;-43
2021/09/03 12:12:27;;;;;;;2.60;1.50;;;;;;;;;;5015200;28;20021;-43
2021/09/03 12:14:54;;;;;;;2.45;1.63;;;;;;;;;;5012513;28;20022;-42
2021/09/03 12:17:21;;;;;;;6.00;1.77;;;;;;;;;;5014976;28;20025;-44
2021/09/03 12:19:47;;;;;;;2.50;1.55;;;;;;;;;;5015224;28;20048;-44
2021/09/03 12:22:17;;;;;;;2.88;2.30;;;;;;;;;;5014843;28;20018;-44
2021/09/03 12:24:48;;;;;;;7.97;2.30;;;;;;;;;;5014854;28;20547;-45
2021/09/03 12:27:16;;;;;;;2.60;1.58;;;;;;;;;;5014906;28;20379;-44
2021/09/03 12:29:43;;;;;;;5.25;2.88;;;;;;;;;;5014885;28;20053;-44
2021/09/03 12:32:11;;;;;;;4.28;2.28;;;;;;;;;;5014834;28;20414;-44
2021/09/03 12:34:39;;;;;;;3.22;2.17;;;;;;;;;;5014850;28;20088;-44
2021/09/03 12:37:07;;;;;;;5.60;2.10;;;;;;;;;;5014788;28;20017;-44
2021/09/03 12:39:34;;;;;;;3.17;1.80;;;;;;;;;;5014800;28;20076;-44
2021/09/03 12:42:03;;;;;;;3.38;2.05;;;;;;;;;;5014607;28;20053;-44
2021/09/03 12:44:31;;;;;;;5.45;1.98;;;;;;;;;;5014434;28;20061;-44
2021/09/03 12:47:01;;;;;;;3.30;1.90;;;;;;;;;;5014805;28;20029;-44
2021/09/03 12:49:27;;;;;;;2.83;1.67;;;;;;;;;;5014464;28;20029;-44
2021/09/03 12:52:01;;;;;;;3.67;2.03;;;;;;;;;;5014458;28;20022;-44
2021/09/03 12:54:28;;;;;;;3.22;2.05;;;;;;;;;;5014359;28;20495;-44
2021/09/03 12:56:54;;;;;;;3.17;1.60;;;;;;;;;;5011638;28;20057;-44
2021/09/03 12:59:21;;;;;;;2.78;1.67;;;;;;;;;;5014230;28;20545;-44
2021/09/03 13:01:50;;;;;;;2.40;1.98;;;;;;;;;;5014045;28;20038;-44
2021/09/03 13:04:20;;;;;;;2.55;1.85;;;;;;;;;;5014118;28;20030;-44
2021/09/03 13:06:50;;;;;;;3.53;1.77;;;;;;;;;;5014141;28;20037;-44
2021/09/03 13:09:17;;;;;;;4.20;2.10;;;;;;;;;;5011742;28;20068;-43
2021/09/03 13:11:44;;;;;;;4.90;2.05;;;;;;;;;;5014592;28;20076;-44
2021/09/03 13:14:10;;;;;;;2.35;1.73;;;;;;;;;;5013807;28;20022;-44
2021/09/03 13:16:40;;;;;;;3.03;1.83;;;;;;;;;;5013998;28;20032;-45
2021/09/03 13:19:06;;;;;;;3.22;1.63;;;;;;;;;;5014069;28;20102;-44
2021/09/03 13:21:33;;;;;;;2.35;1.67;;;;;;;;;;5013933;28;20022;-43
2021/09/03 13:24:02;;;;;;;4.45;1.98;;;;;;;;;;5013784;28;20034;-43
2021/09/03 13:26:29;;;;;;;2.50;1.70;;;;;;;;;;5013750;28;20398;-44
2021/09/03 13:28:55;;;;;;;2.38;1.70;;;;;;;;;;5011067;28;20023;-44
2021/09/03 13:31:22;;;;;;;4.78;2.00;;;;;;;;;;5013422;28;20096;-44
2021/09/03 13:33:49;;;;;;;2.05;1.70;;;;;;;;;;5013679;28;20378;-43
2021/09/03 13:36:15;;;;;;;3.58;1.90;;;;;;;;;;5011312;28;20097;-44
2021/09/03 13:38:42;;;;;;;2.20;1.70;;;;;;;;;;5013547;28;20014;-44
2021/09/03 13:41:08;;;;;;;3.47;2.35;;;;;;;;;;5013506;28;20497;-45
2021/09/03 13:43:34;;;;;;;2.70;1.88;;;;;;;;;;5013321;28;20030;-45
2021/09/03 13:46:00;;;;;;;4.70;1.77;;;;;;;;;;5013432;28;20056;-44
2021/09/03 13:48:27;;;;;;;3.17;2.13;;;;;;;;;;5013314;28;20468;-44
2021/09/03 13:50:53;;;;;;;3.40;2.03;;;;;;;;;;5013340;28;20107;-45
2021/09/03 13:53:19;;;;;;;2.72;1.85;;;;;;;;;;5013313;28;20470;-44
2021/09/03 13:55:45;;;;;;;4.57;1.90;;;;;;;;;;5013354;28;20486;-44
2021/09/03 13:58:11;;;;;;;3.80;1.67;;;;;;;;;;5013000;28;20097;-44
2021/09/03 14:00:37;;;;;;;4.53;1.90;;;;;;;;;;5013150;28;20116;-44
2021/09/03 14:03:05;;;;;;;5.35;2.10;;;;;;;;;;5012791;28;20049;-43
2021/09/03 14:05:31;;;;;;;4.78;1.60;;;;;;;;;;5013014;28;20029;-42
2021/09/03 14:07:58;;;;;;;6.38;4.15;;;;;;;;;;5012307;28;20025;-44
2021/09/03 14:10:24;;;;;;;38.13;23.17;;;;;;;;;;5012974;28;20026;-44
2021/09/03 14:12:50;;;;;;;18.00;7.88;;;;;;;;;;5012707;28;20018;-44
2021/09/03 14:15:16;;;;;;;72.75;45.60;;;;;;;;;;5012857;28;20026;-42
2021/09/03 14:17:42;;;;;;;7.07;4.65;;;;;;;;;;5012968;28;20014;-42
2021/09/03 14:20:11;;;;;;;12.20;6.25;;;;;;;;;;5012885;28;20390;-43
2021/09/03 14:22:37;;;;;;;53.53;26.15;;;;;;;;;;5010349;28;20029;-44
2021/09/03 14:25:04;;;;;;;28.40;15.18;;;;;;;;;;5012757;28;20049;-44
2021/09/03 14:27:30;;;;;;;187.43;88.80;;;;;;;;;;5013456;28;20021;-44
2021/09/03 14:29:56;;;;;;;8.95;4.70;;;;;;;;;;5029284;28;20061;-43
2021/09/03 14:32:22;;;;;;;10.75;4.65;;;;;;;;;;5014297;28;20030;-43